createdAt,value
2023-02-15T00:00:31.505Z,100822.33
2023-02-15T00:01:37.567Z,100830.27
2023-02-15T00:02:41.879Z,100827.78
2023-02-15T00:04:00.461Z,100822.48
2023-02-15T00:04:55.605Z,100822.48
2023-02-15T00:06:16.025Z,100827.78
2023-02-15T00:07:12.401Z,100827.78
2023-02-15T00:08:20.568Z,100823.34
2023-02-15T00:09:24.702Z,100826.77
2023-02-15T00:10:30.299Z,100826.77
2023-02-15T00:11:34.908Z,100831.22
2023-02-15T00:12:43.450Z,100831.22
2023-02-15T00:13:47.863Z,100827.78
2023-02-15T00:14:54.461Z,100824.52
2023-02-15T00:16:10.275Z,100824.52
2023-02-15T00:17:14.126Z,100824.52
2023-02-15T00:18:21.101Z,100826.09
2023-02-15T00:19:25.636Z,100827.78
2023-02-15T00:20:29.700Z,100821.64
2023-02-15T00:21:35.852Z,100831.22
2023-02-15T00:22:41.578Z,100825.92
2023-02-15T00:23:45.773Z,100829.48
2023-02-15T00:24:51.357Z,100830.27
2023-02-15T00:26:10.064Z,100833.86
2023-02-15T00:27:14.163Z,100824.52
2023-02-15T00:28:18.310Z,100832.23
2023-02-15T00:29:27.839Z,100829.48
2023-02-15T00:30:36.201Z,100825.20
2023-02-15T00:31:43.450Z,100824.52
2023-02-15T00:32:52.876Z,100828.73
2023-02-15T00:34:03.519Z,100827.78
2023-02-15T00:35:07.361Z,100832.45
2023-02-15T00:36:14.974Z,100832.45
2023-02-15T00:37:20.562Z,100828.11
2023-02-15T00:38:24.693Z,100820.17
2023-02-15T00:39:28.810Z,100830.75
2023-02-15T00:40:32.863Z,100827.26
2023-02-15T00:41:39.011Z,100830.91
2023-02-15T00:42:44.513Z,100824.67
2023-02-15T00:43:50.883Z,100824.67
2023-02-15T00:44:59.354Z,100825.84
2023-02-15T00:46:05.021Z,100822.97
2023-02-15T00:47:09.190Z,100822.97
2023-02-15T00:48:16.672Z,100835.42
2023-02-15T00:49:20.717Z,100834.64
2023-02-15T00:50:29.483Z,100838.98
2023-02-15T00:51:34.562Z,100830.29
2023-02-15T00:52:38.647Z,100834.73
2023-02-15T00:53:42.825Z,100832.78
2023-02-15T00:54:48.273Z,100832.78
2023-02-15T00:55:55.564Z,100832.78
2023-02-15T00:57:00.485Z,100840.72
2023-02-15T00:58:11.809Z,100840.72
2023-02-15T00:59:14.181Z,100842.58
2023-02-15T01:00:20.460Z,100842.58
2023-02-15T01:01:27.171Z,100834.64
2023-02-15T01:02:34.078Z,100829.28
2023-02-15T01:03:40.953Z,100831.83
2023-02-15T01:04:50.607Z,100835.42
2023-02-15T01:05:53.360Z,100835.42
2023-02-15T01:07:00.535Z,100839.14
2023-02-15T01:08:11.160Z,100844.28
2023-02-15T01:09:13.484Z,100841.03
2023-02-15T01:10:23.050Z,100847.09
2023-02-15T01:11:28.948Z,100847.09
2023-02-15T01:12:35.678Z,100845.32
2023-02-15T01:13:42.665Z,100849.73
2023-02-15T01:14:51.000Z,100851.69
2023-02-15T01:16:06.796Z,100845.45
2023-02-15T01:17:15.468Z,100849.04
2023-02-15T01:18:25.901Z,100860.41
2023-02-15T01:19:31.019Z,100852.70
2023-02-15T01:20:51.760Z,100852.70
2023-02-15T01:21:49.812Z,100849.89
2023-02-15T01:22:56.829Z,100848.98
2023-02-15T01:24:01.094Z,100853.33
2023-02-15T01:25:07.218Z,100853.33
2023-02-15T01:26:13.471Z,100851.75
2023-02-15T01:27:19.523Z,100851.75
2023-02-15T01:28:26.553Z,100855.34
2023-02-15T01:29:32.551Z,100855.34
2023-02-15T01:30:41.397Z,100855.34
2023-02-15T01:31:45.608Z,100850.20
2023-02-15T01:32:49.879Z,100854.65
2023-02-15T01:33:55.654Z,100853.80
2023-02-15T01:35:06.979Z,100853.80
2023-02-15T01:36:11.644Z,100858.94
2023-02-15T01:37:15.845Z,100858.94
2023-02-15T01:38:26.193Z,100864.23
2023-02-15T01:41:25.459Z,100864.98
2023-02-15T01:42:32.034Z,100864.98
2023-02-15T01:43:46.222Z,100867.09
2023-02-15T01:45:01.880Z,100867.09
2023-02-15T01:46:04.340Z,100865.30
2023-02-15T01:47:15.997Z,100866.30
2023-02-15T01:48:27.164Z,100860.95
2023-02-15T01:49:32.825Z,100868.95
2023-02-15T01:50:40.053Z,100859.09
2023-02-15T01:51:50.788Z,100859.38
2023-02-15T01:53:00.435Z,100862.02
2023-02-15T01:54:09.110Z,100862.11
2023-02-15T01:55:16.113Z,100858.74
2023-02-15T01:56:29.985Z,100868.41
2023-02-15T01:57:43.127Z,100864.82
2023-02-15T01:58:55.373Z,100868.41
2023-02-15T02:00:00.625Z,100869.11
2023-02-15T02:01:19.516Z,100869.11
2023-02-15T02:02:16.777Z,100866.40
2023-02-15T02:03:23.977Z,100862.96
2023-02-15T02:05:01.394Z,100866.55
2023-02-15T02:05:44.793Z,100860.00
2023-02-15T02:06:50.551Z,100861.00
2023-02-15T02:07:57.483Z,100861.00
2023-02-15T02:09:04.886Z,100862.80
2023-02-15T02:10:12.377Z,100867.94
2023-02-15T02:11:20.434Z,100876.72
2023-02-15T02:12:26.449Z,100867.14
2023-02-15T02:13:30.493Z,100874.13
2023-02-15T02:14:34.685Z,100870.42
2023-02-15T02:15:47.453Z,100870.42
2023-02-15T02:16:54.622Z,100873.86
2023-02-15T02:18:05.749Z,100861.64
2023-02-15T02:19:32.376Z,100866.05
2023-02-15T02:20:54.254Z,100872.13
2023-02-15T02:22:09.906Z,100872.13
2023-02-15T02:23:37.521Z,100874.86
2023-02-15T02:24:51.108Z,100873.07
2023-02-15T02:26:19.270Z,100873.07
2023-02-15T02:27:41.213Z,100874.86
2023-02-15T02:29:06.472Z,100874.86
2023-02-15T02:30:45.757Z,100879.42
2023-02-15T02:31:58.600Z,100877.57
2023-02-15T02:33:15.887Z,100875.02
2023-02-15T02:34:32.587Z,100875.72
2023-02-15T02:35:54.707Z,100870.42
2023-02-15T02:37:18.147Z,100881.06
2023-02-15T02:38:46.294Z,100880.00
2023-02-15T02:39:59.108Z,100875.62
2023-02-15T02:41:18.525Z,100870.42
2023-02-15T02:42:31.107Z,100872.13
2023-02-15T02:44:02.044Z,100875.56
2023-02-15T02:45:15.811Z,100872.85
2023-02-15T02:46:18.452Z,100870.27
2023-02-15T02:47:44.718Z,100881.55
2023-02-15T02:48:52.236Z,100872.76
2023-02-15T02:50:05.328Z,100869.20
2023-02-15T02:51:10.118Z,100875.41
2023-02-15T02:52:37.950Z,100878.90
2023-02-15T02:53:42.652Z,100874.49
2023-02-15T02:54:46.857Z,100875.34
2023-02-15T02:56:14.526Z,100882.43
2023-02-15T02:57:19.990Z,100881.64
2023-02-15T02:58:41.781Z,100877.98
2023-02-15T02:59:48.308Z,100880.91
2023-02-15T03:00:59.631Z,100885.35
2023-02-15T03:02:12.520Z,100887.94
2023-02-15T03:03:29.918Z,100887.20
2023-02-15T03:04:43.073Z,100885.30
2023-02-15T03:05:51.148Z,100879.15
2023-02-15T03:07:02.302Z,100417.56
2023-02-15T03:08:11.535Z,100888.45
2023-02-15T03:09:34.295Z,100874.28
2023-02-15T03:10:43.608Z,100890.89
2023-02-15T03:11:50.310Z,100889.85
2023-02-15T03:12:55.225Z,100891.10
2023-02-15T03:14:02.555Z,100891.10
2023-02-15T03:15:12.240Z,100892.75
2023-02-15T03:16:19.313Z,100886.60
2023-02-15T03:17:26.408Z,100897.03
2023-02-15T03:18:36.379Z,100902.33
2023-02-15T03:19:41.510Z,100892.50
2023-02-15T03:20:47.504Z,100894.39
2023-02-15T03:21:54.729Z,100893.29
2023-02-15T03:23:01.755Z,100889.80
2023-02-15T03:24:11.673Z,100896.94
2023-02-15T03:25:18.697Z,100895.09
2023-02-15T03:26:27.528Z,100901.23
2023-02-15T03:27:37.198Z,100901.32
2023-02-15T03:28:50.622Z,100902.17
2023-02-15T03:29:58.145Z,100905.73
2023-02-15T03:31:13.531Z,100899.59
2023-02-15T03:32:21.094Z,100897.03
2023-02-15T03:33:27.958Z,100910.69
2023-02-15T03:34:32.228Z,100902.05
2023-02-15T03:35:51.235Z,100897.61
2023-02-15T03:37:22.247Z,100892.26
2023-02-15T03:38:34.641Z,100887.03
2023-02-15T03:39:51.760Z,100887.03
2023-02-15T03:41:01.782Z,100894.48
2023-02-15T03:42:14.226Z,100894.48
2023-02-15T03:43:37.736Z,100892.53
2023-02-15T03:44:44.780Z,100903.75
2023-02-15T03:45:51.794Z,100901.20
2023-02-15T03:47:01.468Z,100901.20
2023-02-15T03:48:08.079Z,100909.04
2023-02-15T03:49:15.093Z,100901.05
2023-02-15T03:50:25.487Z,100901.05
2023-02-15T03:51:32.502Z,100904.48
2023-02-15T03:52:38.506Z,100903.75
2023-02-15T03:53:44.572Z,100906.64
2023-02-15T03:54:48.690Z,100906.64
2023-02-15T03:55:57.746Z,100909.98
2023-02-15T03:57:05.310Z,100900.47
2023-02-15T03:58:12.262Z,100910.19
2023-02-15T03:59:19.208Z,100915.42
2023-02-15T04:00:26.179Z,100901.34
2023-02-15T04:01:49.673Z,100912.69
2023-02-15T04:03:25.170Z,100911.63
2023-02-15T04:04:40.456Z,100919.56
2023-02-15T04:05:46.172Z,100909.13
2023-02-15T04:06:53.659Z,100919.77
2023-02-15T04:07:59.330Z,100918.07
2023-02-15T04:09:05.394Z,100925.91
2023-02-15T04:10:10.819Z,100919.77
2023-02-15T04:11:16.487Z,100922.36
2023-02-15T04:12:20.496Z,100916.22
2023-02-15T04:13:27.510Z,100917.92
2023-02-15T04:14:33.230Z,100917.92
2023-02-15T04:15:41.314Z,100915.97
2023-02-15T04:16:50.977Z,100929.05
2023-02-15T04:17:58.217Z,100924.70
2023-02-15T04:19:03.793Z,100922.05
2023-02-15T04:20:10.299Z,100922.27
2023-02-15T04:21:14.456Z,100926.41
2023-02-15T04:22:26.772Z,100921.41
2023-02-15T04:23:27.386Z,100918.62
2023-02-15T04:24:31.654Z,100916.92
2023-02-15T04:25:39.653Z,100919.72
2023-02-15T04:26:45.133Z,100919.63
2023-02-15T04:27:53.130Z,100919.63
2023-02-15T04:29:14.271Z,100916.98
2023-02-15T04:30:23.317Z,100925.00
2023-02-15T04:31:43.526Z,100918.07
2023-02-15T04:32:35.065Z,100923.91
2023-02-15T04:33:39.038Z,100915.27
2023-02-15T04:34:43.095Z,100918.92
2023-02-15T04:35:47.177Z,100926.00
2023-02-15T04:36:52.924Z,100927.80
2023-02-15T04:37:56.976Z,100927.80
2023-02-15T04:39:02.634Z,100922.51
2023-02-15T04:40:10.104Z,100930.34
2023-02-15T04:41:14.104Z,100925.16
2023-02-15T04:42:18.242Z,100936.58
2023-02-15T04:43:24.379Z,100928.56
2023-02-15T04:44:28.399Z,100933.09
2023-02-15T04:45:34.180Z,100925.36
2023-02-15T04:46:41.372Z,100918.98
2023-02-15T04:47:45.482Z,100927.00
2023-02-15T04:48:52.435Z,100932.59
2023-02-15T04:49:58.130Z,100928.06
2023-02-15T04:51:10.013Z,100924.51
2023-02-15T04:52:23.622Z,100926.06
2023-02-15T04:53:25.601Z,100926.06
2023-02-15T04:54:29.738Z,100927.80
2023-02-15T04:55:34.068Z,100929.50
2023-02-15T04:56:40.728Z,100934.84
2023-02-15T04:57:55.399Z,100924.36
2023-02-15T04:59:44.082Z,100927.70
2023-02-15T05:00:11.520Z,100931.20
2023-02-15T05:01:17.373Z,100934.79
2023-02-15T05:02:25.108Z,100934.64
2023-02-15T05:03:30.522Z,100936.38
2023-02-15T05:04:34.710Z,100948.81
2023-02-15T05:05:38.723Z,100948.81
2023-02-15T05:06:43.098Z,100927.86
2023-02-15T05:07:56.386Z,100932.20
2023-02-15T05:09:14.764Z,100928.06
2023-02-15T05:10:21.311Z,100928.06
2023-02-15T05:11:25.122Z,100932.50
2023-02-15T05:12:30.756Z,100944.58
2023-02-15T05:13:37.816Z,100944.58
2023-02-15T05:14:52.232Z,100936.09
2023-02-15T05:16:02.392Z,100950.81
2023-02-15T05:17:11.488Z,100941.08
2023-02-15T05:18:19.312Z,100947.22
2023-02-15T05:19:27.147Z,100947.22
2023-02-15T05:20:39.034Z,100950.81
2023-02-15T05:21:57.595Z,100940.23
2023-02-15T05:22:53.620Z,100947.38
2023-02-15T05:24:05.509Z,100945.66
2023-02-15T05:25:10.426Z,100943.93
2023-02-15T05:26:19.047Z,100951.75
2023-02-15T05:27:32.367Z,100945.52
2023-02-15T05:28:40.533Z,100936.80
2023-02-15T05:29:56.839Z,100947.31
2023-02-15T05:31:11.949Z,100948.22
2023-02-15T05:32:17.950Z,100950.81
2023-02-15T05:33:25.284Z,100942.52
2023-02-15T05:34:37.415Z,100952.66
2023-02-15T05:35:44.871Z,100952.66
2023-02-15T05:36:50.308Z,100953.45
2023-02-15T05:38:00.492Z,100958.04
2023-02-15T05:39:04.706Z,100947.58
2023-02-15T05:40:11.520Z,100958.89
2023-02-15T05:41:19.735Z,100962.39
2023-02-15T05:42:28.520Z,100958.66
2023-02-15T05:43:34.818Z,100958.66
2023-02-15T05:44:43.167Z,100963.88
2023-02-15T05:45:51.974Z,100962.83
2023-02-15T05:47:00.429Z,100954.09
2023-02-15T05:48:07.194Z,100953.25
2023-02-15T05:49:11.399Z,100969.12
2023-02-15T05:51:28.075Z,100969.67
2023-02-15T05:51:54.333Z,100961.83
2023-02-15T05:52:33.737Z,100956.53
2023-02-15T05:53:40.685Z,100956.53
2023-02-15T05:54:44.884Z,100961.03
2023-02-15T05:55:52.176Z,100969.67
2023-02-15T05:56:59.279Z,100976.41
2023-02-15T05:58:03.576Z,100973.76
2023-02-15T05:59:11.884Z,100963.23
2023-02-15T06:00:28.911Z,100963.23
2023-02-15T06:01:32.745Z,100969.23
2023-02-15T06:02:37.945Z,100968.31
2023-02-15T06:03:42.586Z,100984.89
2023-02-15T06:04:51.846Z,100984.89
2023-02-15T06:05:55.853Z,100973.40
2023-02-15T06:07:01.246Z,100984.04
2023-02-15T06:08:06.123Z,100985.69
2023-02-15T06:09:17.478Z,100975.09
2023-02-15T06:10:20.005Z,100981.95
2023-02-15T06:11:25.715Z,100982.73
2023-02-15T06:12:48.969Z,100977.39
2023-02-15T06:13:54.807Z,100984.38
2023-02-15T06:15:00.474Z,100978.23
2023-02-15T06:16:06.531Z,100984.88
2023-02-15T06:17:12.483Z,100978.94
2023-02-15T06:18:16.761Z,100990.11
2023-02-15T06:19:23.326Z,100984.17
2023-02-15T06:20:27.624Z,100991.26
2023-02-15T06:21:33.345Z,100993.66
2023-02-15T06:22:40.437Z,100991.75
2023-02-15T06:23:48.363Z,100992.66
2023-02-15T06:24:55.057Z,100993.45
2023-02-15T06:26:08.077Z,100998.74
2023-02-15T06:27:15.352Z,100992.66
2023-02-15T06:28:27.962Z,100993.61
2023-02-15T06:29:34.460Z,100993.39
2023-02-15T06:30:57.720Z,100982.22
2023-02-15T06:32:03.691Z,100996.70
2023-02-15T06:33:14.742Z,100990.38
2023-02-15T06:34:52.945Z,100983.96
2023-02-15T06:35:33.890Z,100985.97
2023-02-15T06:36:38.134Z,100991.80
2023-02-15T06:37:47.782Z,100991.95
2023-02-15T06:39:16.566Z,100991.75
2023-02-15T06:40:13.086Z,100983.81
2023-02-15T06:41:27.305Z,100990.95
2023-02-15T06:42:42.702Z,100979.52
2023-02-15T06:43:48.581Z,100979.52
2023-02-15T06:44:50.660Z,100986.36
2023-02-15T06:46:05.569Z,100990.02
2023-02-15T06:47:16.518Z,100977.23
2023-02-15T06:48:20.181Z,100977.23
2023-02-15T06:49:28.056Z,100983.96
2023-02-15T06:50:44.325Z,100976.93
2023-02-15T06:52:17.589Z,100989.16
2023-02-15T06:52:58.839Z,100988.25
2023-02-15T06:54:12.479Z,100985.08
2023-02-15T06:55:16.375Z,100988.64
2023-02-15T06:56:29.088Z,100990.23
2023-02-15T06:57:29.835Z,100993.36
2023-02-15T06:58:42.905Z,100991.34
2023-02-15T06:59:56.322Z,100991.34
2023-02-15T07:01:00.782Z,100993.20
2023-02-15T07:02:09.666Z,100979.02
2023-02-15T07:03:23.149Z,100985.03
2023-02-15T07:04:31.569Z,100985.03
2023-02-15T07:05:38.543Z,100979.59
2023-02-15T07:06:44.954Z,100984.00
2023-02-15T07:07:56.269Z,100973.13
2023-02-15T07:09:00.944Z,100980.81
2023-02-15T07:10:07.366Z,100988.38
2023-02-15T07:11:15.265Z,100974.38
2023-02-15T07:12:26.373Z,100974.38
2023-02-15T07:13:28.922Z,100976.41
2023-02-15T07:14:34.764Z,100975.23
2023-02-15T07:15:45.512Z,100977.25
2023-02-15T07:18:39.388Z,100982.39
2023-02-15T07:19:27.862Z,100974.12
2023-02-15T07:20:32.124Z,100976.39
2023-02-15T07:21:40.170Z,100964.72
2023-02-15T07:22:46.003Z,100971.39
2023-02-15T07:23:51.581Z,100973.88
2023-02-15T07:24:55.787Z,100964.86
2023-02-15T07:26:03.448Z,100973.88
2023-02-15T07:27:15.038Z,100966.33
2023-02-15T07:28:19.466Z,100954.48
2023-02-15T07:29:23.715Z,100973.72
2023-02-15T07:30:38.181Z,100962.09
2023-02-15T07:31:45.550Z,100962.09
2023-02-15T07:32:59.834Z,100974.11
2023-02-15T07:34:25.569Z,100967.78
2023-02-15T07:35:19.728Z,100967.78
2023-02-15T07:36:30.805Z,100972.42
2023-02-15T07:37:37.673Z,100964.12
2023-02-15T07:38:44.281Z,100961.67
2023-02-15T07:39:51.598Z,100961.67
2023-02-15T07:41:04.515Z,100975.33
2023-02-15T07:42:21.178Z,100968.37
2023-02-15T07:43:38.491Z,100976.51
2023-02-15T07:44:49.003Z,100975.20
2023-02-15T07:46:12.954Z,100981.97
2023-02-15T07:47:07.004Z,100997.31
2023-02-15T07:48:15.777Z,100982.77
2023-02-15T07:49:30.828Z,100980.36
2023-02-15T07:50:35.810Z,100982.92
2023-02-15T07:51:47.204Z,100982.92
2023-02-15T07:52:57.637Z,100987.99
2023-02-15T07:54:08.577Z,100991.50
2023-02-15T07:55:11.104Z,100985.48
2023-02-15T07:56:17.126Z,100993.27
2023-02-15T07:57:28.717Z,100991.53
2023-02-15T07:58:45.936Z,100991.53
2023-02-15T08:00:59.735Z,100988.78
2023-02-15T08:02:07.812Z,100997.34
2023-02-15T08:03:17.651Z,100997.34
2023-02-15T08:04:29.153Z,101004.97
2023-02-15T08:05:39.083Z,101004.97
2023-02-15T08:06:54.545Z,101006.87
2023-02-15T08:08:14.372Z,101004.16
2023-02-15T08:41:27.538Z,101043.41
2023-02-15T08:42:35.540Z,101011.25
2023-02-15T08:43:39.872Z,101017.79
2023-02-15T08:44:45.545Z,101025.12
2023-02-15T08:45:54.154Z,101026.70
2023-02-15T08:47:02.198Z,101009.38
2023-02-15T08:48:07.879Z,101010.09
2023-02-15T08:49:16.636Z,101016.87
2023-02-15T08:50:22.294Z,101033.87
2023-02-15T08:51:29.256Z,101024.11
2023-02-15T08:52:34.854Z,101034.66
2023-02-15T08:53:46.523Z,101034.83
2023-02-15T08:54:53.712Z,101041.93
2023-02-15T08:55:59.643Z,101041.93
2023-02-15T08:57:14.691Z,101037.89
2023-02-15T08:58:23.734Z,101023.63
2023-02-15T08:59:37.208Z,101031.72
2023-02-15T09:00:41.030Z,101008.31
2023-02-15T09:01:56.854Z,101008.31
2023-02-15T09:04:17.263Z,101013.15
2023-02-15T09:05:22.977Z,101016.09
2023-02-15T09:06:22.863Z,100290.66
2023-02-15T09:06:36.703Z,101025.80
2023-02-15T09:07:42.433Z,101032.63
2023-02-15T09:09:00.125Z,101029.85
2023-02-15T09:10:09.787Z,101029.85
2023-02-15T09:11:21.238Z,101036.17
2023-02-15T09:12:27.438Z,101040.31
2023-02-15T09:16:11.659Z,101032.66
2023-02-15T09:17:21.737Z,101046.24
2023-02-15T09:18:27.410Z,101032.20
2023-02-15T09:19:33.225Z,101032.20
2023-02-15T09:20:40.512Z,101065.09
2023-02-15T09:21:59.895Z,101036.33
2023-02-15T09:24:16.980Z,101041.31
2023-02-15T09:25:29.784Z,101023.70
2023-02-15T09:26:27.188Z,101036.33
2023-02-15T09:26:55.596Z,101023.70
2023-02-15T09:28:15.294Z,101013.09
2023-02-15T09:29:24.551Z,101024.58
2023-02-15T09:30:33.648Z,101024.58
2023-02-15T09:32:09.031Z,101031.97
2023-02-15T09:34:35.333Z,101030.80
2023-02-15T09:36:05.162Z,101015.58
2023-02-15T09:37:23.818Z,101015.58
2023-02-15T09:38:07.958Z,101021.20
2023-02-15T10:12:06.542Z,101002.25
2023-02-15T10:13:22.556Z,100995.67
2023-02-15T10:14:47.416Z,100997.23
2023-02-15T10:16:07.999Z,100993.35
2023-02-15T10:17:39.735Z,100996.17
2023-02-15T10:18:49.626Z,100994.98
2023-02-15T10:20:14.674Z,100994.98
2023-02-15T10:21:29.947Z,100987.27
2023-02-15T10:22:46.010Z,100982.13
2023-02-15T10:24:13.966Z,100987.20
2023-02-15T10:25:30.082Z,100985.16
2023-02-15T10:26:46.944Z,100985.16
2023-02-15T10:27:54.054Z,100998.70
2023-02-15T10:29:16.016Z,100996.73
2023-02-15T10:30:44.256Z,100995.03
2023-02-15T10:32:00.624Z,101000.07
2023-02-15T10:33:09.200Z,100993.13
2023-02-15T10:34:26.868Z,100993.13
2023-02-15T10:35:41.213Z,100998.13
2023-02-15T10:37:07.896Z,100993.67
2023-02-15T10:38:37.384Z,100981.77
2023-02-15T10:39:51.407Z,100989.56
2023-02-15T10:41:19.684Z,100984.09
2023-02-15T10:42:46.025Z,100985.89
2023-02-15T10:43:54.344Z,100985.11
2023-02-15T10:45:13.087Z,100990.17
2023-02-15T10:46:24.352Z,100987.35
2023-02-15T10:47:42.862Z,100985.48
2023-02-15T10:48:58.817Z,100969.56
2023-02-15T10:50:08.771Z,100969.56
2023-02-15T10:51:21.030Z,100983.91
2023-02-15T10:52:42.486Z,100983.91
2023-02-15T10:54:09.783Z,100987.59
2023-02-15T10:55:30.374Z,100979.73
2023-02-15T10:57:01.490Z,100994.36
2023-02-15T10:58:13.988Z,100983.91
2023-02-15T10:59:48.102Z,100976.73
2023-02-15T11:01:04.300Z,100979.83
2023-02-15T11:02:38.432Z,100986.84
2023-02-15T11:04:11.092Z,100983.51
2023-02-15T11:05:29.018Z,100986.16
2023-02-15T11:06:50.193Z,100987.02
2023-02-15T11:07:54.003Z,100979.83
2023-02-15T11:09:10.831Z,100982.73
2023-02-15T11:10:28.284Z,100984.46
2023-02-15T11:29:44.318Z,100982.69
2023-02-15T11:30:53.584Z,100978.10
2023-02-15T11:32:25.846Z,100978.84
2023-02-15T11:33:13.585Z,100979.63
2023-02-15T11:34:44.467Z,100979.63
2023-02-15T11:36:00.042Z,100976.91
2023-02-15T11:37:20.224Z,100971.67
2023-02-15T11:38:22.195Z,100976.20
2023-02-15T11:39:30.584Z,100980.66
2023-02-15T11:40:38.085Z,100976.98
2023-02-15T11:41:46.667Z,100980.31
2023-02-15T11:43:01.029Z,100971.44
2023-02-15T11:44:18.477Z,100974.16
2023-02-15T11:45:30.831Z,100974.16
2023-02-15T11:46:37.829Z,100972.28
2023-02-15T11:47:43.471Z,100972.28
2023-02-15T11:48:47.703Z,100977.59
2023-02-15T11:49:56.173Z,100977.59
2023-02-15T11:51:09.195Z,100969.56
2023-02-15T11:52:16.882Z,100971.27
2023-02-15T11:53:24.543Z,100980.00
2023-02-15T11:54:32.135Z,100966.30
2023-02-15T11:55:40.335Z,100972.52
2023-02-15T11:56:45.882Z,100956.54
2023-02-15T11:57:59.333Z,100963.65
2023-02-15T11:59:09.584Z,100972.22
2023-02-15T12:00:19.774Z,100971.27
2023-02-15T12:01:36.936Z,100971.09
2023-02-15T12:02:44.449Z,100971.09
2023-02-15T12:05:21.865Z,100970.00
2023-02-15T12:06:35.064Z,100970.75
2023-02-15T12:07:44.783Z,100972.31
2023-02-15T12:08:51.833Z,100972.31
2023-02-15T12:10:18.175Z,100959.22
2023-02-15T12:11:32.501Z,100955.78
2023-02-15T12:12:37.388Z,100966.39
2023-02-15T12:14:01.712Z,100971.77
2023-02-15T12:15:11.724Z,100971.63
2023-02-15T12:16:16.377Z,100958.44
2023-02-15T12:17:24.889Z,100958.44
2023-02-15T12:18:47.112Z,100966.33
2023-02-15T12:19:54.129Z,100431.45
2023-02-15T12:21:06.042Z,100961.34
2023-02-15T12:22:31.282Z,100975.33
2023-02-15T12:23:44.082Z,100975.33
2023-02-15T12:24:48.568Z,100968.22
2023-02-15T12:25:57.948Z,100972.81
2023-02-15T12:27:08.042Z,100969.24
2023-02-15T12:28:21.146Z,100966.66
2023-02-15T12:29:28.211Z,100970.09
2023-02-15T12:30:35.447Z,100963.94
2023-02-15T12:31:43.143Z,100963.83
2023-02-15T12:33:02.290Z,100969.14
2023-02-15T12:34:21.456Z,100957.67
2023-02-15T12:35:34.141Z,100961.28
2023-02-15T12:36:49.922Z,100952.54
2023-02-15T12:37:56.970Z,100951.86
2023-02-15T12:39:15.693Z,100944.75
2023-02-15T12:40:23.535Z,100971.53
2023-02-15T12:41:28.548Z,100974.02
2023-02-15T12:42:45.049Z,100962.48
2023-02-15T12:43:50.684Z,100962.48
2023-02-15T12:45:03.342Z,100956.22
2023-02-15T12:46:25.631Z,100967.61
2023-02-15T12:47:32.185Z,100967.61
2023-02-15T12:48:40.688Z,100971.05
2023-02-15T12:49:47.540Z,100961.45
2023-02-15T12:50:57.751Z,100959.05
2023-02-15T12:52:01.887Z,100966.66
2023-02-15T12:53:32.712Z,100957.17
2023-02-15T12:54:42.851Z,100958.27
2023-02-15T12:56:07.571Z,100958.27
2023-02-15T12:57:32.607Z,100957.23
2023-02-15T12:58:40.805Z,100957.23
2023-02-15T12:59:50.070Z,100956.91
2023-02-15T13:01:14.228Z,100960.00
2023-02-15T13:02:23.645Z,100956.56
2023-02-15T13:03:31.687Z,100957.23
2023-02-15T13:04:59.337Z,100958.09
2023-02-15T13:05:55.910Z,100964.78
2023-02-15T13:07:03.690Z,100957.50
2023-02-15T13:08:27.806Z,100943.73
2023-02-15T13:09:40.224Z,100954.17
2023-02-15T13:11:07.114Z,100940.65
2023-02-15T13:12:30.337Z,100952.97
2023-02-15T13:13:39.054Z,100952.97
2023-02-15T13:14:59.172Z,100955.69
2023-02-15T13:16:01.227Z,100955.69
2023-02-15T13:17:11.374Z,100953.64
2023-02-15T13:18:15.429Z,100953.64
2023-02-15T13:19:26.138Z,100962.38
2023-02-15T13:20:35.653Z,100962.38
2023-02-15T13:21:49.208Z,100963.94
2023-02-15T13:22:57.993Z,100962.38
2023-02-15T13:24:23.274Z,100960.51
2023-02-15T13:25:30.679Z,100968.47
2023-02-15T13:26:36.770Z,100969.25
2023-02-15T13:27:46.727Z,100972.66
2023-02-15T13:29:18.501Z,100970.95
2023-02-15T13:30:05.433Z,100970.95
2023-02-15T13:31:27.808Z,100961.71
2023-02-15T13:32:36.573Z,100961.71
2023-02-15T13:33:43.852Z,100972.50
2023-02-15T13:34:50.140Z,100972.50
2023-02-15T13:35:59.771Z,100972.40
2023-02-15T13:37:12.481Z,100975.83
2023-02-15T13:38:45.262Z,100977.28
2023-02-15T13:40:16.693Z,100976.61
2023-02-15T13:42:04.011Z,100967.02
2023-02-15T13:43:19.720Z,100970.77
2023-02-15T13:44:43.061Z,100990.98
2023-02-15T13:46:06.438Z,100972.40
2023-02-15T13:47:22.587Z,100972.40
2023-02-15T13:48:59.548Z,100983.97
2023-02-15T13:50:31.004Z,100989.27
2023-02-15T13:51:49.881Z,100974.27
2023-02-15T13:53:06.117Z,100984.81
2023-02-15T13:54:23.620Z,100984.81
2023-02-15T13:55:43.056Z,100983.97
2023-02-15T13:57:06.817Z,100985.84
2023-02-15T13:58:39.289Z,100984.31
2023-02-15T13:59:58.943Z,100981.66
2023-02-15T14:01:13.894Z,100981.66
2023-02-15T14:02:24.869Z,100988.06
2023-02-15T14:04:08.973Z,100981.12
2023-02-15T14:05:39.848Z,100988.30
2023-02-15T14:07:06.785Z,100982.14
2023-02-15T14:08:24.893Z,100989.19
2023-02-15T14:10:08.721Z,100986.53
2023-02-15T14:11:26.027Z,100978.13
2023-02-15T14:12:48.151Z,100990.45
2023-02-15T14:14:00.385Z,100987.86
2023-02-15T14:15:09.908Z,100987.86
2023-02-15T14:16:20.399Z,100993.88
2023-02-15T14:17:52.703Z,100993.88
2023-02-15T14:19:02.792Z,100989.84
2023-02-15T14:20:30.386Z,100989.84
2023-02-15T14:21:48.012Z,100992.15
2023-02-15T14:23:00.786Z,100988.75
2023-02-15T14:24:32.084Z,100993.00
2023-02-15T14:25:45.824Z,100987.69
2023-02-15T14:27:00.239Z,100996.44
2023-02-15T14:28:27.541Z,100993.88
2023-02-15T14:29:30.482Z,100999.19
2023-02-15T14:30:41.825Z,100997.45
2023-02-15T14:31:54.282Z,101002.59
2023-02-15T14:33:03.415Z,100993.78
2023-02-15T14:34:17.632Z,100997.28
2023-02-15T14:35:21.603Z,100997.28
2023-02-15T14:36:32.687Z,100992.86
2023-02-15T14:38:02.281Z,100993.88
2023-02-15T14:39:27.576Z,100993.88
2023-02-15T14:41:06.149Z,101002.59
2023-02-15T14:42:28.858Z,101002.76
2023-02-15T14:44:06.310Z,100998.64
2023-02-15T14:46:48.228Z,101002.02
2023-02-15T14:48:03.265Z,101002.02
2023-02-15T14:49:14.808Z,100471.63
2023-02-15T14:50:40.246Z,101004.73
2023-02-15T14:51:49.071Z,101001.23
2023-02-15T14:53:30.873Z,100997.80
2023-02-15T14:55:02.103Z,100958.31
2023-02-15T14:56:15.577Z,101001.40
2023-02-15T14:57:25.298Z,101000.69
2023-02-15T14:58:59.991Z,100996.09
2023-02-15T15:00:11.940Z,101004.19
2023-02-15T15:01:17.766Z,100998.13
2023-02-15T15:02:48.385Z,100998.13
2023-02-15T15:04:01.298Z,101009.59
2023-02-15T15:06:12.183Z,101004.29
2023-02-15T15:08:04.684Z,101007.01
2023-02-15T15:09:30.043Z,101015.23
2023-02-15T15:11:09.391Z,101010.78